sensor_id;sensor_type;location;lat;lon;timestamp;temperature;humidity
18388;DHT22;9320;50.256;19.026;2023-01-09T00:01:29;7.60;99.90
18388;DHT22;9320;50.256;19.026;2023-01-09T00:03:58;7.40;99.90
18388;DHT22;9320;50.256;19.026;2023-01-09T00:06:26;7.40;99.90
18388;DHT22;9320;50.256;19.026;2023-01-09T00:08:56;7.50;99.90
18388;DHT22;9320;50.256;19.026;2023-01-09T00:11:24;7.60;99.90
18388;DHT22;9320;50.256;19.026;2023-01-09T00:13:52;7.50;99.90
18388;DHT22;9320;50.256;19.026;2023-01-09T00:16:20;7.20;99.90
18388;DHT22;9320;50.256;19.026;2023-01-09T00:18:48;7.20;99.90
18388;DHT22;9320;50.256;19.026;2023-01-09T00:21:16;7.20;99.90
18388;DHT22;9320;50.256;19.026;2023-01-09T00:23:44;7.30;99.90
18388;DHT22;9320;50.256;19.026;2023-01-09T00:26:16;7.10;99.90
18388;DHT22;9320;50.256;19.026;2023-01-09T00:28:45;7.10;99.90
18388;DHT22;9320;50.256;19.026;2023-01-09T00:31:13;7.10;99.90
18388;DHT22;9320;50.256;19.026;2023-01-09T00:33:43;7.10;99.90
18388;DHT22;9320;50.256;19.026;2023-01-09T00:36:11;7.00;99.90
18388;DHT22;9320;50.256;19.026;2023-01-09T00:38:39;6.80;99.90
18388;DHT22;9320;50.256;19.026;2023-01-09T00:41:11;6.70;99.90
18388;DHT22;9320;50.256;19.026;2023-01-09T00:43:47;6.70;99.90
18388;DHT22;9320;50.256;19.026;2023-01-09T00:46:17;6.80;99.90
18388;DHT22;9320;50.256;19.026;2023-01-09T00:48:48;6.90;99.90
18388;DHT22;9320;50.256;19.026;2023-01-09T00:51:17;6.90;99.90
18388;DHT22;9320;50.256;19.026;2023-01-09T00:53:47;6.90;99.90
18388;DHT22;9320;50.256;19.026;2023-01-09T00:56:18;6.80;99.90
18388;DHT22;9320;50.256;19.026;2023-01-09T00:58:47;6.80;99.90
18388;DHT22;9320;50.256;19.026;2023-01-09T01:01:16;6.60;99.90
18388;DHT22;9320;50.256;19.026;2023-01-09T01:03:44;6.60;99.90
18388;DHT22;9320;50.256;19.026;2023-01-09T01:06:12;6.50;99.90
18388;DHT22;9320;50.256;19.026;2023-01-09T01:08:58;6.40;99.90
18388;DHT22;9320;50.256;19.026;2023-01-09T01:11:26;6.50;99.90
18388;DHT22;9320;50.256;19.026;2023-01-09T01:13:55;6.40;99.90
18388;DHT22;9320;50.256;19.026;2023-01-09T01:16:23;6.40;99.90
18388;DHT22;9320;50.256;19.026;2023-01-09T01:18:51;6.60;99.90
18388;DHT22;9320;50.256;19.026;2023-01-09T01:21:19;6.50;99.90
18388;DHT22;9320;50.256;19.026;2023-01-09T01:23:47;6.60;99.90
18388;DHT22;9320;50.256;19.026;2023-01-09T01:26:16;6.70;99.90
18388;DHT22;9320;50.256;19.026;2023-01-09T01:28:44;6.40;99.90
18388;DHT22;9320;50.256;19.026;2023-01-09T01:31:17;6.50;99.90
18388;DHT22;9320;50.256;19.026;2023-01-09T01:33:45;6.60;99.90
18388;DHT22;9320;50.256;19.026;2023-01-09T01:36:13;6.70;99.90
18388;DHT22;9320;50.256;19.026;2023-01-09T01:38:43;6.80;99.90
18388;DHT22;9320;50.256;19.026;2023-01-09T01:41:12;6.80;99.90
18388;DHT22;9320;50.256;19.026;2023-01-09T01:43:57;6.90;99.90
18388;DHT22;9320;50.256;19.026;2023-01-09T01:46:27;6.90;99.90
18388;DHT22;9320;50.256;19.026;2023-01-09T01:49:03;6.90;99.90
18388;DHT22;9320;50.256;19.026;2023-01-09T01:51:36;6.90;99.90
18388;DHT22;9320;50.256;19.026;2023-01-09T01:54:08;6.90;99.90
18388;DHT22;9320;50.256;19.026;2023-01-09T01:56:41;6.90;99.90
18388;DHT22;9320;50.256;19.026;2023-01-09T01:59:14;7.00;99.90
18388;DHT22;9320;50.256;19.026;2023-01-09T02:01:49;6.80;99.90
18388;DHT22;9320;50.256;19.026;2023-01-09T02:04:19;6.90;99.90
18388;DHT22;9320;50.256;19.026;2023-01-09T02:06:49;6.70;99.90
18388;DHT22;9320;50.256;19.026;2023-01-09T02:09:18;6.70;99.90
18388;DHT22;9320;50.256;19.026;2023-01-09T02:11:50;6.70;99.90
18388;DHT22;9320;50.256;19.026;2023-01-09T02:14:20;6.70;99.90
18388;DHT22;9320;50.256;19.026;2023-01-09T02:16:56;6.70;99.90
18388;DHT22;9320;50.256;19.026;2023-01-09T02:19:48;6.50;99.90
18388;DHT22;9320;50.256;19.026;2023-01-09T02:22:29;6.50;99.90
18388;DHT22;9320;50.256;19.026;2023-01-09T02:25:11;6.30;99.90
18388;DHT22;9320;50.256;19.026;2023-01-09T02:28:17;6.20;99.90
18388;DHT22;9320;50.256;19.026;2023-01-09T02:30:51;6.20;99.90
18388;DHT22;9320;50.256;19.026;2023-01-09T02:33:35;6.40;99.90
18388;DHT22;9320;50.256;19.026;2023-01-09T02:36:17;6.20;99.90
18388;DHT22;9320;50.256;19.026;2023-01-09T02:38:53;6.10;99.90
18388;DHT22;9320;50.256;19.026;2023-01-09T02:41:30;6.20;99.90
18388;DHT22;9320;50.256;19.026;2023-01-09T02:44:16;6.20;99.90
18388;DHT22;9320;50.256;19.026;2023-01-09T02:46:46;6.20;99.90
18388;DHT22;9320;50.256;19.026;2023-01-09T02:49:16;6.20;99.90
18388;DHT22;9320;50.256;19.026;2023-01-09T02:51:51;6.10;99.90
18388;DHT22;9320;50.256;19.026;2023-01-09T02:54:27;6.10;99.90
18388;DHT22;9320;50.256;19.026;2023-01-09T02:57:14;6.20;99.90
18388;DHT22;9320;50.256;19.026;2023-01-09T03:00:00;6.30;99.90
18388;DHT22;9320;50.256;19.026;2023-01-09T03:02:41;6.30;99.90
18388;DHT22;9320;50.256;19.026;2023-01-09T03:05:17;6.30;99.90
18388;DHT22;9320;50.256;19.026;2023-01-09T03:07:48;6.30;99.90
18388;DHT22;9320;50.256;19.026;2023-01-09T03:10:22;6.20;99.90
18388;DHT22;9320;50.256;19.026;2023-01-09T03:12:52;6.10;99.90
18388;DHT22;9320;50.256;19.026;2023-01-09T03:15:24;6.10;99.90
18388;DHT22;9320;50.256;19.026;2023-01-09T03:17:54;6.20;99.90
18388;DHT22;9320;50.256;19.026;2023-01-09T03:20:25;6.10;99.90
18388;DHT22;9320;50.256;19.026;2023-01-09T03:22:55;6.10;99.90
18388;DHT22;9320;50.256;19.026;2023-01-09T03:25:25;5.90;99.90
18388;DHT22;9320;50.256;19.026;2023-01-09T03:27:56;5.80;99.90
18388;DHT22;9320;50.256;19.026;2023-01-09T03:30:25;5.60;99.90
18388;DHT22;9320;50.256;19.026;2023-01-09T03:32:55;5.50;99.90
18388;DHT22;9320;50.256;19.026;2023-01-09T03:35:24;5.50;99.90
18388;DHT22;9320;50.256;19.026;2023-01-09T03:37:53;5.60;99.90
18388;DHT22;9320;50.256;19.026;2023-01-09T03:40:22;5.50;99.90
18388;DHT22;9320;50.256;19.026;2023-01-09T03:42:50;5.50;99.90
18388;DHT22;9320;50.256;19.026;2023-01-09T03:45:18;5.30;99.90
18388;DHT22;9320;50.256;19.026;2023-01-09T03:47:47;5.30;99.90
18388;DHT22;9320;50.256;19.026;2023-01-09T03:50:19;5.30;99.90
18388;DHT22;9320;50.256;19.026;2023-01-09T03:52:47;5.50;99.90
18388;DHT22;9320;50.256;19.026;2023-01-09T03:55:16;5.60;99.90
18388;DHT22;9320;50.256;19.026;2023-01-09T03:57:44;5.50;99.90
18388;DHT22;9320;50.256;19.026;2023-01-09T04:00:12;5.40;99.90
18388;DHT22;9320;50.256;19.026;2023-01-09T04:02:40;5.30;99.90
18388;DHT22;9320;50.256;19.026;2023-01-09T04:05:09;5.30;99.90
18388;DHT22;9320;50.256;19.026;2023-01-09T04:07:39;5.20;99.90
18388;DHT22;9320;50.256;19.026;2023-01-09T04:10:08;5.20;99.90
18388;DHT22;9320;50.256;19.026;2023-01-09T04:12:36;5.20;99.90
18388;DHT22;9320;50.256;19.026;2023-01-09T04:15:05;5.20;99.90
18388;DHT22;9320;50.256;19.026;2023-01-09T04:17:33;5.20;99.90
18388;DHT22;9320;50.256;19.026;2023-01-09T04:20:02;5.30;99.90
18388;DHT22;9320;50.256;19.026;2023-01-09T04:22:30;5.20;99.90
18388;DHT22;9320;50.256;19.026;2023-01-09T04:24:59;5.40;99.90
18388;DHT22;9320;50.256;19.026;2023-01-09T04:27:27;5.50;99.90
18388;DHT22;9320;50.256;19.026;2023-01-09T04:29:55;5.40;99.90
18388;DHT22;9320;50.256;19.026;2023-01-09T04:32:23;5.40;99.90
18388;DHT22;9320;50.256;19.026;2023-01-09T04:34:53;5.40;99.90
18388;DHT22;9320;50.256;19.026;2023-01-09T04:37:22;5.20;99.90
18388;DHT22;9320;50.256;19.026;2023-01-09T04:39:50;5.00;99.90
18388;DHT22;9320;50.256;19.026;2023-01-09T04:42:23;4.90;99.90
18388;DHT22;9320;50.256;19.026;2023-01-09T04:44:51;4.80;99.90
18388;DHT22;9320;50.256;19.026;2023-01-09T04:47:20;4.80;99.90
18388;DHT22;9320;50.256;19.026;2023-01-09T04:49:49;4.80;99.90
18388;DHT22;9320;50.256;19.026;2023-01-09T04:52:17;4.80;99.90
18388;DHT22;9320;50.256;19.026;2023-01-09T04:54:45;4.80;99.90
18388;DHT22;9320;50.256;19.026;2023-01-09T04:57:13;4.90;99.90
18388;DHT22;9320;50.256;19.026;2023-01-09T04:59:43;4.90;99.90
18388;DHT22;9320;50.256;19.026;2023-01-09T05:02:11;5.00;99.90
18388;DHT22;9320;50.256;19.026;2023-01-09T05:04:39;5.10;99.90
18388;DHT22;9320;50.256;19.026;2023-01-09T05:07:07;5.20;99.90
18388;DHT22;9320;50.256;19.026;2023-01-09T05:09:35;5.40;99.90
18388;DHT22;9320;50.256;19.026;2023-01-09T05:12:03;5.50;99.90
18388;DHT22;9320;50.256;19.026;2023-01-09T05:14:31;5.40;99.90
18388;DHT22;9320;50.256;19.026;2023-01-09T05:17:01;5.40;99.90
18388;DHT22;9320;50.256;19.026;2023-01-09T05:19:29;5.40;99.90
18388;DHT22;9320;50.256;19.026;2023-01-09T05:21:57;5.40;99.90
18388;DHT22;9320;50.256;19.026;2023-01-09T05:24:25;5.30;99.90
18388;DHT22;9320;50.256;19.026;2023-01-09T05:26:53;5.20;99.90
18388;DHT22;9320;50.256;19.026;2023-01-09T05:29:21;5.20;99.90
18388;DHT22;9320;50.256;19.026;2023-01-09T05:31:49;5.20;99.90
18388;DHT22;9320;50.256;19.026;2023-01-09T05:34:20;5.20;99.90
18388;DHT22;9320;50.256;19.026;2023-01-09T05:36:48;5.00;99.90
18388;DHT22;9320;50.256;19.026;2023-01-09T05:39:16;5.10;99.90
18388;DHT22;9320;50.256;19.026;2023-01-09T05:41:44;5.20;99.90
18388;DHT22;9320;50.256;19.026;2023-01-09T05:44:12;5.30;99.90
18388;DHT22;9320;50.256;19.026;2023-01-09T05:46:40;5.30;99.90
18388;DHT22;9320;50.256;19.026;2023-01-09T05:49:08;5.40;99.90
18388;DHT22;9320;50.256;19.026;2023-01-09T05:51:37;5.10;99.90
18388;DHT22;9320;50.256;19.026;2023-01-09T05:54:05;5.20;99.90
18388;DHT22;9320;50.256;19.026;2023-01-09T05:56:33;5.30;99.90
18388;DHT22;9320;50.256;19.026;2023-01-09T05:59:01;5.30;99.90
18388;DHT22;9320;50.256;19.026;2023-01-09T06:01:29;5.40;99.90
18388;DHT22;9320;50.256;19.026;2023-01-09T06:03:57;5.60;99.90
18388;DHT22;9320;50.256;19.026;2023-01-09T06:06:25;5.70;99.90
18388;DHT22;9320;50.256;19.026;2023-01-09T06:08:55;5.70;99.90
18388;DHT22;9320;50.256;19.026;2023-01-09T06:11:23;5.90;99.90
18388;DHT22;9320;50.256;19.026;2023-01-09T06:13:51;5.50;99.90
18388;DHT22;9320;50.256;19.026;2023-01-09T06:16:19;5.50;99.90
18388;DHT22;9320;50.256;19.026;2023-01-09T06:18:47;5.40;99.90
18388;DHT22;9320;50.256;19.026;2023-01-09T06:21:16;5.30;99.90
18388;DHT22;9320;50.256;19.026;2023-01-09T06:23:44;5.60;99.90
18388;DHT22;9320;50.256;19.026;2023-01-09T06:26:13;5.70;99.90
18388;DHT22;9320;50.256;19.026;2023-01-09T06:28:41;5.90;99.90
18388;DHT22;9320;50.256;19.026;2023-01-09T06:31:10;5.80;99.90
18388;DHT22;9320;50.256;19.026;2023-01-09T06:33:40;6.00;99.90
18388;DHT22;9320;50.256;19.026;2023-01-09T06:36:08;6.00;99.90
18388;DHT22;9320;50.256;19.026;2023-01-09T06:38:36;5.90;99.90
18388;DHT22;9320;50.256;19.026;2023-01-09T06:41:04;5.90;99.90
18388;DHT22;9320;50.256;19.026;2023-01-09T06:43:34;6.10;99.90
18388;DHT22;9320;50.256;19.026;2023-01-09T06:46:02;6.40;99.90
18388;DHT22;9320;50.256;19.026;2023-01-09T06:48:31;6.50;99.90
18388;DHT22;9320;50.256;19.026;2023-01-09T06:50:59;6.50;99.90
18388;DHT22;9320;50.256;19.026;2023-01-09T06:53:28;6.50;99.90
18388;DHT22;9320;50.256;19.026;2023-01-09T06:55:56;6.40;99.90
18388;DHT22;9320;50.256;19.026;2023-01-09T06:58:24;6.40;99.90
18388;DHT22;9320;50.256;19.026;2023-01-09T07:00:53;6.60;99.90
18388;DHT22;9320;50.256;19.026;2023-01-09T07:03:22;6.60;99.90
18388;DHT22;9320;50.256;19.026;2023-01-09T07:05:50;6.80;99.90
18388;DHT22;9320;50.256;19.026;2023-01-09T07:08:18;6.80;99.90
18388;DHT22;9320;50.256;19.026;2023-01-09T07:10:46;6.80;99.90
18388;DHT22;9320;50.256;19.026;2023-01-09T07:13:14;7.00;99.90
18388;DHT22;9320;50.256;19.026;2023-01-09T07:15:42;7.00;99.90
18388;DHT22;9320;50.256;19.026;2023-01-09T07:18:11;7.00;99.90
18388;DHT22;9320;50.256;19.026;2023-01-09T07:20:39;7.10;99.90
18388;DHT22;9320;50.256;19.026;2023-01-09T07:23:10;7.10;99.90
18388;DHT22;9320;50.256;19.026;2023-01-09T07:25:38;7.10;99.90
18388;DHT22;9320;50.256;19.026;2023-01-09T07:28:06;7.00;99.90
18388;DHT22;9320;50.256;19.026;2023-01-09T07:30:34;7.10;99.90
18388;DHT22;9320;50.256;19.026;2023-01-09T07:33:03;7.20;99.90
18388;DHT22;9320;50.256;19.026;2023-01-09T07:35:32;7.10;99.90
18388;DHT22;9320;50.256;19.026;2023-01-09T07:38:00;7.00;99.90
18388;DHT22;9320;50.256;19.026;2023-01-09T07:40:28;6.90;99.90
18388;DHT22;9320;50.256;19.026;2023-01-09T07:42:56;7.00;99.90
18388;DHT22;9320;50.256;19.026;2023-01-09T07:45:24;6.90;99.90
18388;DHT22;9320;50.256;19.026;2023-01-09T07:47:53;7.00;99.90
18388;DHT22;9320;50.256;19.026;2023-01-09T07:50:21;7.10;99.90
18388;DHT22;9320;50.256;19.026;2023-01-09T07:52:50;7.10;99.90
18388;DHT22;9320;50.256;19.026;2023-01-09T07:55:18;7.10;99.90
18388;DHT22;9320;50.256;19.026;2023-01-09T07:57:48;7.30;99.90
18388;DHT22;9320;50.256;19.026;2023-01-09T08:00:17;7.30;99.90
18388;DHT22;9320;50.256;19.026;2023-01-09T08:02:50;7.40;99.90
18388;DHT22;9320;50.256;19.026;2023-01-09T08:05:18;7.40;99.90
18388;DHT22;9320;50.256;19.026;2023-01-09T08:07:46;7.40;99.90
18388;DHT22;9320;50.256;19.026;2023-01-09T08:10:18;7.30;99.90
18388;DHT22;9320;50.256;19.026;2023-01-09T08:12:47;7.50;99.90
18388;DHT22;9320;50.256;19.026;2023-01-09T08:15:15;7.50;99.90
18388;DHT22;9320;50.256;19.026;2023-01-09T08:17:44;7.30;99.90
18388;DHT22;9320;50.256;19.026;2023-01-09T08:20:14;7.30;99.90
18388;DHT22;9320;50.256;19.026;2023-01-09T08:22:43;7.20;99.90
18388;DHT22;9320;50.256;19.026;2023-01-09T08:25:17;7.20;99.90
18388;DHT22;9320;50.256;19.026;2023-01-09T08:27:45;7.30;99.90
18388;DHT22;9320;50.256;19.026;2023-01-09T08:30:14;7.60;99.90
18388;DHT22;9320;50.256;19.026;2023-01-09T08:32:42;7.60;99.90
18388;DHT22;9320;50.256;19.026;2023-01-09T08:35:10;8.00;99.90
18388;DHT22;9320;50.256;19.026;2023-01-09T08:37:42;7.50;99.90
18388;DHT22;9320;50.256;19.026;2023-01-09T08:40:11;7.50;99.90
18388;DHT22;9320;50.256;19.026;2023-01-09T08:42:41;7.40;99.90
18388;DHT22;9320;50.256;19.026;2023-01-09T08:45:26;7.50;99.90
18388;DHT22;9320;50.256;19.026;2023-01-09T08:48:12;7.70;99.90
18388;DHT22;9320;50.256;19.026;2023-01-09T08:50:40;7.70;99.90
18388;DHT22;9320;50.256;19.026;2023-01-09T08:53:10;7.80;99.90
18388;DHT22;9320;50.256;19.026;2023-01-09T08:55:38;7.80;99.90
18388;DHT22;9320;50.256;19.026;2023-01-09T08:58:07;7.70;99.90
18388;DHT22;9320;50.256;19.026;2023-01-09T09:00:35;7.50;99.90
18388;DHT22;9320;50.256;19.026;2023-01-09T09:03:03;7.50;99.90
18388;DHT22;9320;50.256;19.026;2023-01-09T09:05:32;7.60;99.90
18388;DHT22;9320;50.256;19.026;2023-01-09T09:08:00;7.70;99.90
18388;DHT22;9320;50.256;19.026;2023-01-09T09:10:29;8.20;99.90
18388;DHT22;9320;50.256;19.026;2023-01-09T09:12:59;8.20;99.90
18388;DHT22;9320;50.256;19.026;2023-01-09T09:15:28;8.30;99.90
18388;DHT22;9320;50.256;19.026;2023-01-09T09:17:58;8.20;99.90
18388;DHT22;9320;50.256;19.026;2023-01-09T09:20:28;8.20;99.90
18388;DHT22;9320;50.256;19.026;2023-01-09T09:22:57;8.10;99.90
18388;DHT22;9320;50.256;19.026;2023-01-09T09:25:26;8.20;99.90
18388;DHT22;9320;50.256;19.026;2023-01-09T09:27:54;8.10;99.90
18388;DHT22;9320;50.256;19.026;2023-01-09T09:30:23;8.00;99.90
18388;DHT22;9320;50.256;19.026;2023-01-09T09:32:53;8.00;99.90
18388;DHT22;9320;50.256;19.026;2023-01-09T09:35:21;8.10;99.90
18388;DHT22;9320;50.256;19.026;2023-01-09T09:37:54;8.30;99.90
18388;DHT22;9320;50.256;19.026;2023-01-09T09:40:33;8.30;99.90
18388;DHT22;9320;50.256;19.026;2023-01-09T09:43:19;8.30;99.90
18388;DHT22;9320;50.256;19.026;2023-01-09T09:46:16;8.10;99.90
18388;DHT22;9320;50.256;19.026;2023-01-09T09:48:52;8.40;99.90
18388;DHT22;9320;50.256;19.026;2023-01-09T09:51:36;8.60;99.90
18388;DHT22;9320;50.256;19.026;2023-01-09T09:54:11;8.70;99.90
18388;DHT22;9320;50.256;19.026;2023-01-09T09:56:47;8.80;99.90
18388;DHT22;9320;50.256;19.026;2023-01-09T09:59:19;8.80;99.90
18388;DHT22;9320;50.256;19.026;2023-01-09T10:01:51;8.90;99.90
18388;DHT22;9320;50.256;19.026;2023-01-09T10:04:25;8.90;99.90
18388;DHT22;9320;50.256;19.026;2023-01-09T10:06:56;9.00;99.90
18388;DHT22;9320;50.256;19.026;2023-01-09T10:09:35;9.10;99.90
18388;DHT22;9320;50.256;19.026;2023-01-09T10:12:16;9.10;99.90
18388;DHT22;9320;50.256;19.026;2023-01-09T10:14:47;9.30;99.90
18388;DHT22;9320;50.256;19.026;2023-01-09T10:17:27;9.40;99.90
18388;DHT22;9320;50.256;19.026;2023-01-09T10:23:12;9.60;99.90
18388;DHT22;9320;50.256;19.026;2023-01-09T10:25:45;10.00;99.90
18388;DHT22;9320;50.256;19.026;2023-01-09T10:28:25;10.10;99.90
18388;DHT22;9320;50.256;19.026;2023-01-09T10:30:59;10.20;99.90
18388;DHT22;9320;50.256;19.026;2023-01-09T10:33:41;10.40;99.90
18388;DHT22;9320;50.256;19.026;2023-01-09T10:36:30;10.50;99.90
18388;DHT22;9320;50.256;19.026;2023-01-09T10:39:07;10.60;99.90
18388;DHT22;9320;50.256;19.026;2023-01-09T10:41:41;10.70;99.90
18388;DHT22;9320;50.256;19.026;2023-01-09T10:44:15;10.60;99.90
18388;DHT22;9320;50.256;19.026;2023-01-09T10:46:49;10.60;99.90
18388;DHT22;9320;50.256;19.026;2023-01-09T10:49:20;10.70;99.90
18388;DHT22;9320;50.256;19.026;2023-01-09T10:51:50;10.80;99.90
18388;DHT22;9320;50.256;19.026;2023-01-09T10:54:21;10.80;99.90
18388;DHT22;9320;50.256;19.026;2023-01-09T10:56:54;10.80;99.90
18388;DHT22;9320;50.256;19.026;2023-01-09T10:59:23;10.90;99.90
18388;DHT22;9320;50.256;19.026;2023-01-09T11:01:52;11.00;99.90
18388;DHT22;9320;50.256;19.026;2023-01-09T11:04:25;11.00;99.90
18388;DHT22;9320;50.256;19.026;2023-01-09T11:06:57;11.00;99.90
18388;DHT22;9320;50.256;19.026;2023-01-09T11:09:28;11.20;99.90
18388;DHT22;9320;50.256;19.026;2023-01-09T11:12:22;11.10;99.90
18388;DHT22;9320;50.256;19.026;2023-01-09T11:14:51;11.20;99.90
18388;DHT22;9320;50.256;19.026;2023-01-09T11:17:20;11.10;99.90
18388;DHT22;9320;50.256;19.026;2023-01-09T11:20:04;11.10;99.90
18388;DHT22;9320;50.256;19.026;2023-01-09T11:22:42;11.10;99.90
18388;DHT22;9320;50.256;19.026;2023-01-09T11:25:14;11.10;99.90
18388;DHT22;9320;50.256;19.026;2023-01-09T11:27:42;11.20;99.90
18388;DHT22;9320;50.256;19.026;2023-01-09T11:30:19;11.10;99.90
18388;DHT22;9320;50.256;19.026;2023-01-09T11:32:49;11.10;99.90
18388;DHT22;9320;50.256;19.026;2023-01-09T11:35:21;11.10;99.90
18388;DHT22;9320;50.256;19.026;2023-01-09T11:38:05;11.10;99.90
18388;DHT22;9320;50.256;19.026;2023-01-09T11:40:44;11.10;99.90
18388;DHT22;9320;50.256;19.026;2023-01-09T11:43:26;11.00;99.90
18388;DHT22;9320;50.256;19.026;2023-01-09T11:46:00;11.00;99.90
18388;DHT22;9320;50.256;19.026;2023-01-09T11:48:32;11.00;99.90
18388;DHT22;9320;50.256;19.026;2023-01-09T11:51:02;11.00;99.90
18388;DHT22;9320;50.256;19.026;2023-01-09T11:56:29;10.90;99.90
18388;DHT22;9320;50.256;19.026;2023-01-09T11:58:58;10.70;99.90
18388;DHT22;9320;50.256;19.026;2023-01-09T12:04:25;10.60;99.90
18388;DHT22;9320;50.256;19.026;2023-01-09T12:07:19;10.60;99.90
18388;DHT22;9320;50.256;19.026;2023-01-09T12:09:58;10.50;99.90
18388;DHT22;9320;50.256;19.026;2023-01-09T12:12:35;10.50;99.90
18388;DHT22;9320;50.256;19.026;2023-01-09T12:15:22;10.50;99.90
18388;DHT22;9320;50.256;19.026;2023-01-09T12:18:02;10.50;99.90
18388;DHT22;9320;50.256;19.026;2023-01-09T12:20:43;10.40;99.90
18388;DHT22;9320;50.256;19.026;2023-01-09T12:23:22;10.50;99.90
18388;DHT22;9320;50.256;19.026;2023-01-09T12:26:00;10.40;99.90
18388;DHT22;9320;50.256;19.026;2023-01-09T12:28:42;10.50;99.90
18388;DHT22;9320;50.256;19.026;2023-01-09T12:31:25;10.40;99.90
18388;DHT22;9320;50.256;19.026;2023-01-09T12:34:05;10.50;99.90
18388;DHT22;9320;50.256;19.026;2023-01-09T12:36:43;10.60;99.90
18388;DHT22;9320;50.256;19.026;2023-01-09T12:39:22;10.50;99.90
18388;DHT22;9320;50.256;19.026;2023-01-09T12:42:19;10.60;99.90
18388;DHT22;9320;50.256;19.026;2023-01-09T12:44:56;10.70;99.90
18388;DHT22;9320;50.256;19.026;2023-01-09T12:47:44;10.70;99.90
18388;DHT22;9320;50.256;19.026;2023-01-09T12:50:37;10.70;99.90
18388;DHT22;9320;50.256;19.026;2023-01-09T12:53:17;10.80;99.90
18388;DHT22;9320;50.256;19.026;2023-01-09T12:55:51;10.80;99.90
18388;DHT22;9320;50.256;19.026;2023-01-09T12:58:33;10.80;99.90
18388;DHT22;9320;50.256;19.026;2023-01-09T13:01:07;10.60;99.90
18388;DHT22;9320;50.256;19.026;2023-01-09T13:03:42;10.70;99.90
18388;DHT22;9320;50.256;19.026;2023-01-09T13:06:14;10.70;99.90
18388;DHT22;9320;50.256;19.026;2023-01-09T13:08:45;10.70;99.90
18388;DHT22;9320;50.256;19.026;2023-01-09T13:11:17;10.70;99.90
18388;DHT22;9320;50.256;19.026;2023-01-09T13:13:49;10.70;99.90
18388;DHT22;9320;50.256;19.026;2023-01-09T13:16:24;10.60;99.90
18388;DHT22;9320;50.256;19.026;2023-01-09T13:18:58;10.70;99.90
18388;DHT22;9320;50.256;19.026;2023-01-09T13:21:27;10.80;99.90
18388;DHT22;9320;50.256;19.026;2023-01-09T13:24:00;10.70;99.90
18388;DHT22;9320;50.256;19.026;2023-01-09T13:26:33;10.60;99.90
18388;DHT22;9320;50.256;19.026;2023-01-09T13:29:08;10.60;99.90
18388;DHT22;9320;50.256;19.026;2023-01-09T13:31:56;10.60;99.90
18388;DHT22;9320;50.256;19.026;2023-01-09T13:34:30;10.70;99.90
18388;DHT22;9320;50.256;19.026;2023-01-09T13:36:59;10.60;99.90
18388;DHT22;9320;50.256;19.026;2023-01-09T13:39:29;10.60;99.90
18388;DHT22;9320;50.256;19.026;2023-01-09T13:42:00;10.60;99.90
18388;DHT22;9320;50.256;19.026;2023-01-09T13:44:48;10.50;99.90
18388;DHT22;9320;50.256;19.026;2023-01-09T13:47:20;10.50;99.90
18388;DHT22;9320;50.256;19.026;2023-01-09T13:50:23;10.60;99.90
18388;DHT22;9320;50.256;19.026;2023-01-09T13:52:52;10.50;99.90
18388;DHT22;9320;50.256;19.026;2023-01-09T13:55:29;10.60;99.90
18388;DHT22;9320;50.256;19.026;2023-01-09T13:58:22;10.60;99.90
18388;DHT22;9320;50.256;19.026;2023-01-09T14:00:56;10.60;99.90
18388;DHT22;9320;50.256;19.026;2023-01-09T14:03:28;10.60;99.90
18388;DHT22;9320;50.256;19.026;2023-01-09T14:06:22;10.60;99.90
18388;DHT22;9320;50.256;19.026;2023-01-09T14:09:09;10.70;99.90
18388;DHT22;9320;50.256;19.026;2023-01-09T14:11:39;10.60;99.90
18388;DHT22;9320;50.256;19.026;2023-01-09T14:14:21;10.60;99.90
18388;DHT22;9320;50.256;19.026;2023-01-09T14:16:52;10.70;99.90
18388;DHT22;9320;50.256;19.026;2023-01-09T14:19:30;10.60;99.90
18388;DHT22;9320;50.256;19.026;2023-01-09T14:22:00;10.60;99.90
18388;DHT22;9320;50.256;19.026;2023-01-09T14:24:31;10.60;99.90
18388;DHT22;9320;50.256;19.026;2023-01-09T14:27:00;10.50;99.90
18388;DHT22;9320;50.256;19.026;2023-01-09T14:29:40;10.50;99.90
18388;DHT22;9320;50.256;19.026;2023-01-09T14:35:28;10.50;99.90
18388;DHT22;9320;50.256;19.026;2023-01-09T14:38:03;10.50;99.90
18388;DHT22;9320;50.256;19.026;2023-01-09T14:40:33;10.50;99.90
18388;DHT22;9320;50.256;19.026;2023-01-09T14:43:13;10.50;99.90
18388;DHT22;9320;50.256;19.026;2023-01-09T14:45:45;10.50;99.90
18388;DHT22;9320;50.256;19.026;2023-01-09T14:48:16;10.40;99.90
18388;DHT22;9320;50.256;19.026;2023-01-09T14:50:49;10.40;99.90
18388;DHT22;9320;50.256;19.026;2023-01-09T14:53:22;10.50;99.90
18388;DHT22;9320;50.256;19.026;2023-01-09T14:55:55;10.40;99.90
18388;DHT22;9320;50.256;19.026;2023-01-09T14:58:26;10.40;99.90
18388;DHT22;9320;50.256;19.026;2023-01-09T15:01:00;10.40;99.90
18388;DHT22;9320;50.256;19.026;2023-01-09T15:03:33;10.40;99.90
18388;DHT22;9320;50.256;19.026;2023-01-09T15:06:05;10.30;99.90
18388;DHT22;9320;50.256;19.026;2023-01-09T15:08:37;10.40;99.90
18388;DHT22;9320;50.256;19.026;2023-01-09T15:11:05;10.40;99.90
18388;DHT22;9320;50.256;19.026;2023-01-09T15:13:36;10.40;99.90
18388;DHT22;9320;50.256;19.026;2023-01-09T15:16:16;10.40;99.90
18388;DHT22;9320;50.256;19.026;2023-01-09T15:18:47;10.30;99.90
18388;DHT22;9320;50.256;19.026;2023-01-09T15:21:20;10.20;99.90
18388;DHT22;9320;50.256;19.026;2023-01-09T15:23:49;10.20;99.90
18388;DHT22;9320;50.256;19.026;2023-01-09T15:26:25;10.20;99.90
18388;DHT22;9320;50.256;19.026;2023-01-09T15:28:59;10.10;99.90
18388;DHT22;9320;50.256;19.026;2023-01-09T15:31:27;10.10;99.90
18388;DHT22;9320;50.256;19.026;2023-01-09T15:33:56;10.10;99.90
18388;DHT22;9320;50.256;19.026;2023-01-09T15:36:26;10.10;99.90
18388;DHT22;9320;50.256;19.026;2023-01-09T15:38:57;10.10;99.90
18388;DHT22;9320;50.256;19.026;2023-01-09T15:41:27;10.20;99.90
18388;DHT22;9320;50.256;19.026;2023-01-09T15:44:15;10.20;99.90
18388;DHT22;9320;50.256;19.026;2023-01-09T15:46:45;10.10;99.90
18388;DHT22;9320;50.256;19.026;2023-01-09T15:49:16;10.10;99.90
18388;DHT22;9320;50.256;19.026;2023-01-09T15:51:48;10.20;99.90
18388;DHT22;9320;50.256;19.026;2023-01-09T15:54:21;10.10;99.90
18388;DHT22;9320;50.256;19.026;2023-01-09T15:56:52;10.10;99.90
18388;DHT22;9320;50.256;19.026;2023-01-09T15:59:24;10.10;99.90
18388;DHT22;9320;50.256;19.026;2023-01-09T16:01:56;10.00;99.90
18388;DHT22;9320;50.256;19.026;2023-01-09T16:04:46;10.00;99.90
18388;DHT22;9320;50.256;19.026;2023-01-09T16:07:19;10.00;99.90
18388;DHT22;9320;50.256;19.026;2023-01-09T16:09:49;10.00;99.90
18388;DHT22;9320;50.256;19.026;2023-01-09T16:12:21;10.00;99.90
18388;DHT22;9320;50.256;19.026;2023-01-09T16:14:52;10.10;99.90
18388;DHT22;9320;50.256;19.026;2023-01-09T16:17:21;10.00;99.90
18388;DHT22;9320;50.256;19.026;2023-01-09T16:19:53;10.00;99.90
18388;DHT22;9320;50.256;19.026;2023-01-09T16:22:26;10.00;99.90
18388;DHT22;9320;50.256;19.026;2023-01-09T16:24:56;10.00;99.90